KOUN

University of Oklahoma Westheimer Airport

Norman, Oklahoma, USA
KOUN 181742Z 1818/1918 18010KT P6SM BKN120 FM190600 16008KT P6SM SCT010 BKN050 TEMPO 1910/1914 4SM BR BKN010
Issued Valid From Valid To
Dec-18 @ 17:42 UTC
(6 hours ago)
Dec-18 @ 18:00 UTC
(5 hours ago)
Dec-19 @ 18:00 UTC
(in 19 hours)
Dec-18 @ 18:00 to Dec-19 @ 06:00
KOUN 181742Z 1818/1918 18010KT P6SM BKN120
Wind Visibility Clouds
180° at 10 knots Greater than 6 miles
  • Broken at 12,000' AGL
From Dec-19 @ 06:00 to Dec-19 @ 18:00
FM190600 16008KT P6SM SCT010 BKN050
Wind Visibility Clouds
160° at 8 knots Greater than 6 miles
  • Scattered at 1,000' AGL
  • Broken at 5,000' AGL
Temporary Dec-19 @ 10:00 to Dec-19 @ 14:00
TEMPO 1910/1914 4SM BR BKN010
Visibility Clouds Conditions
4 miles
  • Broken at 1,000' AGL
  • Mist
KOUN 181742Z 1818/1918 18010KT P6SM BKN120 FM190600 16008KT P6SM SCT010 BKN050 TEMPO 1910/1914 4SM BR BKN010
Issued Dec-18 @ 17:42 UTC
(6 hours ago)
Valid From Dec-18 @ 18:00 UTC
(5 hours ago)
Valid To Dec-19 @ 18:00 UTC
(in 19 hours)
Dec-18 @ 18:00 - Dec-19 @ 06:00
Wind Visibility
180° at 10 knots Greater than 6 miles
Clouds
  • Broken at 12,000' AGL
From Dec-19 @ 06:00 - Dec-19 @ 18:00
Wind Visibility
160° at 8 knots Greater than 6 miles
Clouds
  • Scattered at 1,000' AGL
  • Broken at 5,000' AGL
Temporary Dec-19 @ 10:00 - Dec-19 @ 14:00
Clouds
  • Broken at 1,000' AGL
Conditions
  • Mist